sensor_id;sensor_type;location;lat;lon;timestamp;pressure;altitude;pressure_sealevel;temperature;humidity
60974;BME280;46846;51.528;5.076;2023-03-08T00:02:24;99555.22;;;1.67;79.34
60974;BME280;46846;51.528;5.076;2023-03-08T00:04:53;99558.75;;;1.66;79.27
60974;BME280;46846;51.528;5.076;2023-03-08T00:07:18;99557.84;;;1.67;79.30
60974;BME280;46846;51.528;5.076;2023-03-08T00:09:44;99556.97;;;1.67;79.66
60974;BME280;46846;51.528;5.076;2023-03-08T00:12:09;99554.34;;;1.67;79.25
60974;BME280;46846;51.528;5.076;2023-03-08T00:14:35;99549.16;;;1.65;79.01
60974;BME280;46846;51.528;5.076;2023-03-08T00:17:00;99552.63;;;1.66;78.96
60974;BME280;46846;51.528;5.076;2023-03-08T00:19:26;99559.66;;;1.63;79.07
60974;BME280;46846;51.528;5.076;2023-03-08T00:21:52;99564.88;;;1.65;79.15
60974;BME280;46846;51.528;5.076;2023-03-08T00:24:17;99557.88;;;1.66;79.08
60974;BME280;46846;51.528;5.076;2023-03-08T00:26:44;99556.16;;;1.63;79.22
60974;BME280;46846;51.528;5.076;2023-03-08T00:29:09;99549.19;;;1.62;78.95
60974;BME280;46846;51.528;5.076;2023-03-08T00:31:34;99559.69;;;1.62;79.05
60974;BME280;46846;51.528;5.076;2023-03-08T00:34:00;99554.47;;;1.60;79.24
60974;BME280;46846;51.528;5.076;2023-03-08T00:36:26;99550.91;;;1.63;78.90
60974;BME280;46846;51.528;5.076;2023-03-08T00:38:51;99552.53;;;1.70;78.97
60974;BME280;46846;51.528;5.076;2023-03-08T00:41:17;99551.63;;;1.71;78.93
60974;BME280;46846;51.528;5.076;2023-03-08T00:43:43;99538.59;;;1.68;78.75
60974;BME280;46846;51.528;5.076;2023-03-08T00:46:09;99548.19;;;1.69;78.65
60974;BME280;46846;51.528;5.076;2023-03-08T00:48:34;99543.84;;;1.67;78.86
60974;BME280;46846;51.528;5.076;2023-03-08T00:51:00;99542.03;;;1.70;78.76
60974;BME280;46846;51.528;5.076;2023-03-08T00:53:25;99538.53;;;1.71;79.02
60974;BME280;46846;51.528;5.076;2023-03-08T00:55:56;99542.03;;;1.72;78.44
60974;BME280;46846;51.528;5.076;2023-03-08T00:58:23;99542.91;;;1.72;78.40
60974;BME280;46846;51.528;5.076;2023-03-08T01:00:48;99536.69;;;1.75;78.32
60974;BME280;46846;51.528;5.076;2023-03-08T01:03:15;99521.03;;;1.73;78.18
60974;BME280;46846;51.528;5.076;2023-03-08T01:05:48;99527.19;;;1.71;78.52
60974;BME280;46846;51.528;5.076;2023-03-08T01:08:15;99522.75;;;1.74;78.26
60974;BME280;46846;51.528;5.076;2023-03-08T01:10:49;99515.78;;;1.73;78.27
60974;BME280;46846;51.528;5.076;2023-03-08T01:13:15;99519.25;;;1.74;78.31
60974;BME280;46846;51.528;5.076;2023-03-08T01:15:40;99515.78;;;1.72;78.21
60974;BME280;46846;51.528;5.076;2023-03-08T01:18:06;99511.38;;;1.74;78.40
60974;BME280;46846;51.528;5.076;2023-03-08T01:20:32;99512.25;;;1.74;78.12
60974;BME280;46846;51.528;5.076;2023-03-08T01:22:57;99504.41;;;1.73;78.25
60974;BME280;46846;51.528;5.076;2023-03-08T01:25:23;99492.19;;;1.72;78.08
60974;BME280;46846;51.528;5.076;2023-03-08T01:27:48;99482.59;;;1.71;78.54
60974;BME280;46846;51.528;5.076;2023-03-08T01:30:13;99477.34;;;1.72;78.19
60974;BME280;46846;51.528;5.076;2023-03-08T01:32:39;99479.09;;;1.70;78.30
60974;BME280;46846;51.528;5.076;2023-03-08T01:35:05;99473.00;;;1.70;78.14
60974;BME280;46846;51.528;5.076;2023-03-08T01:37:31;99467.72;;;1.71;78.22
60974;BME280;46846;51.528;5.076;2023-03-08T01:39:56;99467.78;;;1.68;78.26
60974;BME280;46846;51.528;5.076;2023-03-08T01:42:22;99468.69;;;1.67;78.07
60974;BME280;46846;51.528;5.076;2023-03-08T01:44:56;99466.97;;;1.66;78.17
60974;BME280;46846;51.528;5.076;2023-03-08T01:47:24;99463.44;;;1.67;78.32
60974;BME280;46846;51.528;5.076;2023-03-08T01:49:52;99464.34;;;1.66;78.10
60974;BME280;46846;51.528;5.076;2023-03-08T01:52:23;99455.56;;;1.67;78.21
60974;BME280;46846;51.528;5.076;2023-03-08T01:54:57;99461.75;;;1.63;78.19
60974;BME280;46846;51.528;5.076;2023-03-08T01:57:29;99459.03;;;1.68;78.12
60974;BME280;46846;51.528;5.076;2023-03-08T02:00:01;99452.97;;;1.67;78.25
60974;BME280;46846;51.528;5.076;2023-03-08T02:02:35;99452.03;;;1.70;77.73
60974;BME280;46846;51.528;5.076;2023-03-08T02:05:04;99448.56;;;1.68;78.08
60974;BME280;46846;51.528;5.076;2023-03-08T02:07:30;99444.16;;;1.70;77.78
60974;BME280;46846;51.528;5.076;2023-03-08T02:09:55;99428.38;;;1.71;78.12
60974;BME280;46846;51.528;5.076;2023-03-08T02:12:21;99423.19;;;1.70;78.01
60974;BME280;46846;51.528;5.076;2023-03-08T02:14:46;99420.56;;;1.70;77.80
60974;BME280;46846;51.528;5.076;2023-03-08T02:17:12;99417.88;;;1.71;78.05
60974;BME280;46846;51.528;5.076;2023-03-08T02:20:18;99409.19;;;1.71;77.87
60974;BME280;46846;51.528;5.076;2023-03-08T02:22:42;99404.84;;;1.70;78.31
60974;BME280;46846;51.528;5.076;2023-03-08T02:25:28;99406.59;;;1.68;78.18
60974;BME280;46846;51.528;5.076;2023-03-08T02:27:54;99409.28;;;1.66;78.03
60974;BME280;46846;51.528;5.076;2023-03-08T02:30:25;99398.78;;;1.66;77.94
60974;BME280;46846;51.528;5.076;2023-03-08T02:32:51;99397.06;;;1.65;78.23
60974;BME280;46846;51.528;5.076;2023-03-08T02:35:16;99393.56;;;1.64;78.00
60974;BME280;46846;51.528;5.076;2023-03-08T02:37:42;99383.16;;;1.61;78.40
60974;BME280;46846;51.528;5.076;2023-03-08T02:40:09;99386.63;;;1.62;77.94
60974;BME280;46846;51.528;5.076;2023-03-08T02:42:35;99390.13;;;1.62;77.96
60974;BME280;46846;51.528;5.076;2023-03-08T02:45:00;99388.41;;;1.61;78.53
60974;BME280;46846;51.528;5.076;2023-03-08T02:47:26;99394.47;;;1.63;78.12
60974;BME280;46846;51.528;5.076;2023-03-08T02:49:51;99393.59;;;1.63;78.16
60974;BME280;46846;51.528;5.076;2023-03-08T02:52:17;99382.19;;;1.64;78.27
60974;BME280;46846;51.528;5.076;2023-03-08T02:54:42;99382.28;;;1.61;78.18
60974;BME280;46846;51.528;5.076;2023-03-08T02:57:07;99377.00;;;1.62;78.20
60974;BME280;46846;51.528;5.076;2023-03-08T02:59:33;99374.41;;;1.62;78.13
60974;BME280;46846;51.528;5.076;2023-03-08T03:01:58;99373.50;;;1.62;78.09
60974;BME280;46846;51.528;5.076;2023-03-08T03:04:28;99356.97;;;1.60;77.91
60974;BME280;46846;51.528;5.076;2023-03-08T03:06:54;99354.34;;;1.60;78.21
60974;BME280;46846;51.528;5.076;2023-03-08T03:09:19;99362.22;;;1.60;78.27
60974;BME280;46846;51.528;5.076;2023-03-08T03:11:44;99358.69;;;1.61;78.05
60974;BME280;46846;51.528;5.076;2023-03-08T03:14:10;99356.03;;;1.62;78.30
60974;BME280;46846;51.528;5.076;2023-03-08T03:16:35;99355.97;;;1.64;78.12
60974;BME280;46846;51.528;5.076;2023-03-08T03:19:01;99346.41;;;1.63;78.05
60974;BME280;46846;51.528;5.076;2023-03-08T03:21:26;99340.31;;;1.62;78.16
60974;BME280;46846;51.528;5.076;2023-03-08T03:23:53;99336.81;;;1.62;77.99
60974;BME280;46846;51.528;5.076;2023-03-08T03:26:21;99322.84;;;1.61;78.11
60974;BME280;46846;51.528;5.076;2023-03-08T03:28:47;99319.28;;;1.64;78.20
60974;BME280;46846;51.528;5.076;2023-03-08T03:31:14;99307.16;;;1.60;78.12
60974;BME280;46846;51.528;5.076;2023-03-08T03:33:40;99304.53;;;1.60;78.12
60974;BME280;46846;51.528;5.076;2023-03-08T03:36:06;99304.53;;;1.60;78.10
60974;BME280;46846;51.528;5.076;2023-03-08T03:38:33;99304.56;;;1.58;78.16
60974;BME280;46846;51.528;5.076;2023-03-08T03:41:08;99305.38;;;1.60;78.27
60974;BME280;46846;51.528;5.076;2023-03-08T03:43:35;99295.75;;;1.61;78.23
60974;BME280;46846;51.528;5.076;2023-03-08T03:46:02;99312.38;;;1.61;78.05
60974;BME280;46846;51.528;5.076;2023-03-08T03:48:28;99303.75;;;1.55;78.01
60974;BME280;46846;51.528;5.076;2023-03-08T03:51:02;99294.97;;;1.57;78.58
60974;BME280;46846;51.528;5.076;2023-03-08T03:53:29;99287.06;;;1.59;78.16
60974;BME280;46846;51.528;5.076;2023-03-08T03:55:55;99290.53;;;1.59;78.24
60974;BME280;46846;51.528;5.076;2023-03-08T03:58:25;99289.69;;;1.59;78.21
60974;BME280;46846;51.528;5.076;2023-03-08T04:00:50;99284.44;;;1.59;78.00
60974;BME280;46846;51.528;5.076;2023-03-08T04:03:16;99281.97;;;1.53;78.26
60974;BME280;46846;51.528;5.076;2023-03-08T04:05:41;99270.56;;;1.54;78.31
60974;BME280;46846;51.528;5.076;2023-03-08T04:08:07;99264.44;;;1.55;78.15
60974;BME280;46846;51.528;5.076;2023-03-08T04:10:33;99270.56;;;1.54;78.21
60974;BME280;46846;51.528;5.076;2023-03-08T04:12:59;99258.41;;;1.51;78.06
60974;BME280;46846;51.528;5.076;2023-03-08T04:15:24;99253.13;;;1.53;78.43
60974;BME280;46846;51.528;5.076;2023-03-08T04:17:50;99255.78;;;1.51;78.45
60974;BME280;46846;51.528;5.076;2023-03-08T04:20:16;99250.53;;;1.51;78.36
60974;BME280;46846;51.528;5.076;2023-03-08T04:22:41;99252.19;;;1.55;78.20
60974;BME280;46846;51.528;5.076;2023-03-08T04:25:07;99241.66;;;1.57;78.15
60974;BME280;46846;51.528;5.076;2023-03-08T04:27:33;99234.69;;;1.56;78.51
60974;BME280;46846;51.528;5.076;2023-03-08T04:29:58;99232.97;;;1.55;78.28
60974;BME280;46846;51.528;5.076;2023-03-08T04:32:23;99226.13;;;1.49;78.42
60974;BME280;46846;51.528;5.076;2023-03-08T04:34:49;99220.78;;;1.52;78.57
60974;BME280;46846;51.528;5.076;2023-03-08T04:37:14;99218.22;;;1.50;78.20
60974;BME280;46846;51.528;5.076;2023-03-08T04:39:39;99212.94;;;1.52;78.16
60974;BME280;46846;51.528;5.076;2023-03-08T04:42:05;99213.81;;;1.53;78.32
60974;BME280;46846;51.528;5.076;2023-03-08T04:44:30;99212.09;;;1.50;78.48
60974;BME280;46846;51.528;5.076;2023-03-08T04:46:56;99207.75;;;1.50;78.24
60974;BME280;46846;51.528;5.076;2023-03-08T04:49:22;99200.91;;;1.43;77.97
60974;BME280;46846;51.528;5.076;2023-03-08T04:51:48;99194.78;;;1.44;78.40
60974;BME280;46846;51.528;5.076;2023-03-08T04:54:13;99179.91;;;1.45;78.38
60974;BME280;46846;51.528;5.076;2023-03-08T04:56:39;99183.38;;;1.45;78.55
60974;BME280;46846;51.528;5.076;2023-03-08T04:59:04;99179.00;;;1.46;78.70
60974;BME280;46846;51.528;5.076;2023-03-08T05:01:30;99184.28;;;1.44;78.35
60974;BME280;46846;51.528;5.076;2023-03-08T05:03:55;99172.03;;;1.45;78.78
60974;BME280;46846;51.528;5.076;2023-03-08T05:06:23;99171.06;;;1.49;78.56
60974;BME280;46846;51.528;5.076;2023-03-08T05:08:49;99159.81;;;1.45;78.37
60974;BME280;46846;51.528;5.076;2023-03-08T05:11:21;99160.59;;;1.49;78.41
60974;BME280;46846;51.528;5.076;2023-03-08T05:13:47;99154.56;;;1.45;78.55
60974;BME280;46846;51.528;5.076;2023-03-08T05:16:13;99154.47;;;1.48;78.53
60974;BME280;46846;51.528;5.076;2023-03-08T05:18:38;99157.09;;;1.48;78.58
60974;BME280;46846;51.528;5.076;2023-03-08T05:21:14;99146.56;;;1.50;78.45
60974;BME280;46846;51.528;5.076;2023-03-08T05:23:40;99142.25;;;1.47;78.26
60974;BME280;46846;51.528;5.076;2023-03-08T05:26:07;99137.13;;;1.44;78.23
60974;BME280;46846;51.528;5.076;2023-03-08T05:28:34;99130.06;;;1.46;78.36
60974;BME280;46846;51.528;5.076;2023-03-08T05:31:05;99118.94;;;1.36;78.20
60974;BME280;46846;51.528;5.076;2023-03-08T05:33:32;99113.59;;;1.41;78.29
60974;BME280;46846;51.528;5.076;2023-03-08T05:35:58;99104.88;;;1.41;78.82
60974;BME280;46846;51.528;5.076;2023-03-08T05:38:24;99097.94;;;1.38;78.36
60974;BME280;46846;51.528;5.076;2023-03-08T05:40:49;99096.34;;;1.32;78.72
60974;BME280;46846;51.528;5.076;2023-03-08T05:43:15;99093.59;;;1.37;78.83
60974;BME280;46846;51.528;5.076;2023-03-08T05:45:41;99091.88;;;1.36;78.52
60974;BME280;46846;51.528;5.076;2023-03-08T05:48:06;99080.63;;;1.32;78.52
60974;BME280;46846;51.528;5.076;2023-03-08T05:50:32;99083.19;;;1.34;78.91
60974;BME280;46846;51.528;5.076;2023-03-08T05:52:57;99072.00;;;1.27;78.95
60974;BME280;46846;51.528;5.076;2023-03-08T05:55:22;99072.13;;;1.22;78.83
60974;BME280;46846;51.528;5.076;2023-03-08T05:57:48;99067.06;;;1.15;79.17
60974;BME280;46846;51.528;5.076;2023-03-08T06:00:14;99069.53;;;1.21;79.08
60974;BME280;46846;51.528;5.076;2023-03-08T06:02:40;99066.88;;;1.22;78.94
60974;BME280;46846;51.528;5.076;2023-03-08T06:05:06;99063.53;;;1.16;79.07
60974;BME280;46846;51.528;5.076;2023-03-08T06:07:31;99067.00;;;1.18;79.00
60974;BME280;46846;51.528;5.076;2023-03-08T06:09:57;99063.53;;;1.16;79.17
60974;BME280;46846;51.528;5.076;2023-03-08T06:12:22;99065.03;;;1.26;79.18
60974;BME280;46846;51.528;5.076;2023-03-08T06:14:48;99056.81;;;1.05;79.19
60974;BME280;46846;51.528;5.076;2023-03-08T06:17:13;99063.59;;;1.14;79.31
60974;BME280;46846;51.528;5.076;2023-03-08T06:19:39;99060.22;;;1.09;79.36
60974;BME280;46846;51.528;5.076;2023-03-08T06:22:04;99057.50;;;1.12;79.65
60974;BME280;46846;51.528;5.076;2023-03-08T06:24:29;99053.13;;;1.14;79.50
60974;BME280;46846;51.528;5.076;2023-03-08T06:26:55;99048.78;;;1.13;78.87
60974;BME280;46846;51.528;5.076;2023-03-08T06:29:21;99046.53;;;0.98;79.62
60974;BME280;46846;51.528;5.076;2023-03-08T06:31:46;99046.19;;;1.12;79.26
60974;BME280;46846;51.528;5.076;2023-03-08T06:34:11;99045.38;;;1.09;79.26
60974;BME280;46846;51.528;5.076;2023-03-08T06:36:37;99039.94;;;1.17;78.94
60974;BME280;46846;51.528;5.076;2023-03-08T06:39:03;99043.44;;;1.16;79.07
60974;BME280;46846;51.528;5.076;2023-03-08T06:41:28;99045.28;;;1.13;78.81
60974;BME280;46846;51.528;5.076;2023-03-08T06:43:54;99044.41;;;1.12;79.05
60974;BME280;46846;51.528;5.076;2023-03-08T06:46:20;99036.56;;;1.12;78.74
60974;BME280;46846;51.528;5.076;2023-03-08T06:48:46;99040.44;;;0.95;79.65
60974;BME280;46846;51.528;5.076;2023-03-08T06:51:12;99041.84;;;1.11;79.33
60974;BME280;46846;51.528;5.076;2023-03-08T06:53:38;99048.09;;;1.05;78.88
60974;BME280;46846;51.528;5.076;2023-03-08T06:56:05;99047.16;;;1.07;78.86
60974;BME280;46846;51.528;5.076;2023-03-08T06:58:32;99046.31;;;1.07;78.90
60974;BME280;46846;51.528;5.076;2023-03-08T07:00:58;99035.16;;;0.99;79.43
60974;BME280;46846;51.528;5.076;2023-03-08T07:03:24;99033.38;;;0.99;78.97
60974;BME280;46846;51.528;5.076;2023-03-08T07:05:49;99031.53;;;1.03;79.17
60974;BME280;46846;51.528;5.076;2023-03-08T07:08:15;99029.94;;;0.97;79.33
60974;BME280;46846;51.528;5.076;2023-03-08T07:10:40;99024.75;;;0.95;79.23
60974;BME280;46846;51.528;5.076;2023-03-08T07:13:05;99025.50;;;1.01;78.99
60974;BME280;46846;51.528;5.076;2023-03-08T07:15:31;99018.41;;;1.06;78.98
60974;BME280;46846;51.528;5.076;2023-03-08T07:17:56;99016.63;;;1.06;78.93
60974;BME280;46846;51.528;5.076;2023-03-08T07:20:23;99018.22;;;1.12;78.61
60974;BME280;46846;51.528;5.076;2023-03-08T07:22:50;99007.16;;;1.01;78.38
60974;BME280;46846;51.528;5.076;2023-03-08T07:25:16;99007.28;;;0.96;78.86
60974;BME280;46846;51.528;5.076;2023-03-08T07:27:44;99010.81;;;0.93;78.60
60974;BME280;46846;51.528;5.076;2023-03-08T07:30:12;99004.88;;;0.87;79.16
60974;BME280;46846;51.528;5.076;2023-03-08T07:32:38;99003.66;;;1.00;78.17
60974;BME280;46846;51.528;5.076;2023-03-08T07:35:06;99002.06;;;0.94;78.49
60974;BME280;46846;51.528;5.076;2023-03-08T07:37:31;98999.38;;;0.98;78.66
60974;BME280;46846;51.528;5.076;2023-03-08T07:39:57;98996.59;;;1.04;78.41
60974;BME280;46846;51.528;5.076;2023-03-08T07:42:22;98991.47;;;0.99;78.31
60974;BME280;46846;51.528;5.076;2023-03-08T07:44:47;98990.81;;;0.91;78.35
60974;BME280;46846;51.528;5.076;2023-03-08T07:47:13;98990.75;;;0.94;78.06
60974;BME280;46846;51.528;5.076;2023-03-08T07:49:38;98994.16;;;0.98;77.83
60974;BME280;46846;51.528;5.076;2023-03-08T07:52:04;98991.59;;;0.94;78.19
60974;BME280;46846;51.528;5.076;2023-03-08T07:54:29;98987.22;;;0.95;77.88
60974;BME280;46846;51.528;5.076;2023-03-08T07:56:55;98978.72;;;0.87;78.56
60974;BME280;46846;51.528;5.076;2023-03-08T07:59:21;98979.38;;;0.95;78.46
60974;BME280;46846;51.528;5.076;2023-03-08T08:01:47;98979.31;;;0.97;78.08
60974;BME280;46846;51.528;5.076;2023-03-08T08:04:12;98982.03;;;0.93;78.31
60974;BME280;46846;51.528;5.076;2023-03-08T08:06:38;98977.53;;;0.99;78.08
60974;BME280;46846;51.528;5.076;2023-03-08T08:09:04;98961.97;;;0.92;78.51
60974;BME280;46846;51.528;5.076;2023-03-08T08:11:30;98969.72;;;0.97;78.69
60974;BME280;46846;51.528;5.076;2023-03-08T08:13:56;98956.66;;;0.95;78.50
60974;BME280;46846;51.528;5.076;2023-03-08T08:16:21;98954.00;;;0.97;78.47
60974;BME280;46846;51.528;5.076;2023-03-08T08:18:47;98948.72;;;0.99;78.13
60974;BME280;46846;51.528;5.076;2023-03-08T08:21:14;98940.78;;;1.02;77.52
60974;BME280;46846;51.528;5.076;2023-03-08T08:23:41;98935.63;;;0.99;77.82
60974;BME280;46846;51.528;5.076;2023-03-08T08:26:09;98930.47;;;0.95;77.85
60974;BME280;46846;51.528;5.076;2023-03-08T08:28:35;98921.63;;;1.00;77.86
60974;BME280;46846;51.528;5.076;2023-03-08T08:31:07;98924.41;;;0.93;77.84
60974;BME280;46846;51.528;5.076;2023-03-08T08:33:33;98924.41;;;0.93;78.08
60974;BME280;46846;51.528;5.076;2023-03-08T08:36:02;98927.03;;;0.93;77.67
60974;BME280;46846;51.528;5.076;2023-03-08T08:38:28;98928.63;;;0.99;77.67
60974;BME280;46846;51.528;5.076;2023-03-08T08:40:54;98928.59;;;1.01;77.28
60974;BME280;46846;51.528;5.076;2023-03-08T08:43:22;98936.47;;;0.99;77.63
60974;BME280;46846;51.528;5.076;2023-03-08T08:45:53;98949.84;;;0.88;77.97
60974;BME280;46846;51.528;5.076;2023-03-08T08:48:18;98961.03;;;0.95;77.98
60974;BME280;46846;51.528;5.076;2023-03-08T08:50:43;98963.53;;;1.00;77.73
60974;BME280;46846;51.528;5.076;2023-03-08T08:53:09;98965.34;;;0.98;77.75
60974;BME280;46846;51.528;5.076;2023-03-08T08:55:35;98966.28;;;0.95;77.52
60974;BME280;46846;51.528;5.076;2023-03-08T08:58:01;98970.59;;;0.98;77.60
60974;BME280;46846;51.528;5.076;2023-03-08T09:00:27;98953.91;;;1.00;77.56
60974;BME280;46846;51.528;5.076;2023-03-08T09:02:53;98937.59;;;0.90;78.03
60974;BME280;46846;51.528;5.076;2023-03-08T09:05:18;98909.50;;;0.95;77.10
60974;BME280;46846;51.528;5.076;2023-03-08T09:07:44;98888.81;;;0.86;77.51
60974;BME280;46846;51.528;5.076;2023-03-08T09:10:10;98888.00;;;0.84;77.98
60974;BME280;46846;51.528;5.076;2023-03-08T09:12:36;98889.88;;;0.77;77.96
60974;BME280;46846;51.528;5.076;2023-03-08T09:15:02;98892.47;;;0.79;77.94
60974;BME280;46846;51.528;5.076;2023-03-08T09:17:27;98894.06;;;0.85;77.87
60974;BME280;46846;51.528;5.076;2023-03-08T09:19:52;98895.84;;;0.84;77.92
60974;BME280;46846;51.528;5.076;2023-03-08T09:22:18;98893.28;;;0.81;77.56
60974;BME280;46846;51.528;5.076;2023-03-08T09:24:43;98882.91;;;0.78;78.11
60974;BME280;46846;51.528;5.076;2023-03-08T09:27:12;98888.19;;;0.76;77.76
60974;BME280;46846;51.528;5.076;2023-03-08T09:29:37;98882.28;;;0.68;78.39
60974;BME280;46846;51.528;5.076;2023-03-08T09:32:04;98877.06;;;0.66;78.42
60974;BME280;46846;51.528;5.076;2023-03-08T09:34:29;98869.19;;;0.68;78.17
60974;BME280;46846;51.528;5.076;2023-03-08T09:36:55;98863.28;;;0.61;78.63
60974;BME280;46846;51.528;5.076;2023-03-08T09:39:20;98870.28;;;0.59;78.40
60974;BME280;46846;51.528;5.076;2023-03-08T09:41:54;98866.00;;;0.57;78.60
60974;BME280;46846;51.528;5.076;2023-03-08T09:44:45;98875.50;;;0.59;78.52
60974;BME280;46846;51.528;5.076;2023-03-08T09:49:45;98853.69;;;0.60;78.38
60974;BME280;46846;51.528;5.076;2023-03-08T09:52:39;98854.66;;;0.56;79.25
60974;BME280;46846;51.528;5.076;2023-03-08T09:55:20;98853.75;;;0.57;78.98
60974;BME280;46846;51.528;5.076;2023-03-08T09:57:56;98847.63;;;0.58;78.73
60974;BME280;46846;51.528;5.076;2023-03-08T10:00:29;98858.16;;;0.57;78.23
60974;BME280;46846;51.528;5.076;2023-03-08T10:06:18;98860.00;;;0.53;79.12
60974;BME280;46846;51.528;5.076;2023-03-08T10:08:54;98863.34;;;0.58;78.56
60974;BME280;46846;51.528;5.076;2023-03-08T10:11:33;98859.03;;;0.56;78.98
60974;BME280;46846;51.528;5.076;2023-03-08T10:14:09;98856.22;;;0.63;78.45
60974;BME280;46846;51.528;5.076;2023-03-08T10:16:44;98848.34;;;0.65;78.09
60974;BME280;46846;51.528;5.076;2023-03-08T10:21:55;98858.22;;;0.53;78.42
60974;BME280;46846;51.528;5.076;2023-03-08T10:24:30;98855.56;;;0.55;78.92
60974;BME280;46846;51.528;5.076;2023-03-08T10:27:20;98850.31;;;0.57;78.34
60974;BME280;46846;51.528;5.076;2023-03-08T10:30:18;98841.34;;;0.65;78.19
60974;BME280;46846;51.528;5.076;2023-03-08T10:32:47;98829.28;;;0.60;78.37
60974;BME280;46846;51.528;5.076;2023-03-08T10:35:13;98826.69;;;0.58;78.27
60974;BME280;46846;51.528;5.076;2023-03-08T10:37:39;98817.22;;;0.54;78.77
60974;BME280;46846;51.528;5.076;2023-03-08T10:40:08;98806.50;;;0.63;78.15
60974;BME280;46846;51.528;5.076;2023-03-08T10:42:34;98825.78;;;0.59;78.76
60974;BME280;46846;51.528;5.076;2023-03-08T10:45:02;98845.00;;;0.58;78.81
60974;BME280;46846;51.528;5.076;2023-03-08T10:47:34;98844.16;;;0.58;78.87
60974;BME280;46846;51.528;5.076;2023-03-08T10:50:19;98833.63;;;0.59;78.18
60974;BME280;46846;51.528;5.076;2023-03-08T10:52:46;98836.09;;;0.65;78.56
60974;BME280;46846;51.528;5.076;2023-03-08T10:55:19;98834.47;;;0.61;78.89
60974;BME280;46846;51.528;5.076;2023-03-08T10:57:51;98840.63;;;0.60;79.20
60974;BME280;46846;51.528;5.076;2023-03-08T11:02:43;98834.47;;;0.61;78.91
60974;BME280;46846;51.528;5.076;2023-03-08T11:05:21;98835.28;;;0.63;78.64
60974;BME280;46846;51.528;5.076;2023-03-08T11:07:58;98829.09;;;0.67;78.83
60974;BME280;46846;51.528;5.076;2023-03-08T11:10:27;98817.53;;;0.75;77.92
60974;BME280;46846;51.528;5.076;2023-03-08T11:13:28;98818.56;;;0.69;78.08
60974;BME280;46846;51.528;5.076;2023-03-08T11:16:03;98817.59;;;0.73;78.38
60974;BME280;46846;51.528;5.076;2023-03-08T11:21:13;98813.06;;;0.78;78.38
60974;BME280;46846;51.528;5.076;2023-03-08T11:23:57;98826.13;;;0.80;78.64
60974;BME280;46846;51.528;5.076;2023-03-08T11:29:24;98813.06;;;0.78;78.34
60974;BME280;46846;51.528;5.076;2023-03-08T11:34:55;98826.34;;;0.72;78.15
60974;BME280;46846;51.528;5.076;2023-03-08T11:37:42;98809.63;;;0.76;78.47
60974;BME280;46846;51.528;5.076;2023-03-08T11:40:28;98796.53;;;0.76;78.53
60974;BME280;46846;51.528;5.076;2023-03-08T11:57:11;98788.00;;;0.70;79.03
60974;BME280;46846;51.528;5.076;2023-03-08T11:59:49;98787.13;;;0.69;78.64
60974;BME280;46846;51.528;5.076;2023-03-08T12:02:19;98791.34;;;0.75;78.21
60974;BME280;46846;51.528;5.076;2023-03-08T12:07:42;98799.13;;;0.78;78.29
60974;BME280;46846;51.528;5.076;2023-03-08T12:10:32;98799.94;;;0.80;78.26
60974;BME280;46846;51.528;5.076;2023-03-08T12:13:14;98797.53;;;0.72;79.26
60974;BME280;46846;51.528;5.076;2023-03-08T12:15:48;98808.09;;;0.69;79.30
60974;BME280;46846;51.528;5.076;2023-03-08T12:18:30;98806.34;;;0.70;79.42
60974;BME280;46846;51.528;5.076;2023-03-08T12:21:13;98797.44;;;0.75;78.96
60974;BME280;46846;51.528;5.076;2023-03-08T12:26:25;98800.94;;;0.76;78.70
60974;BME280;46846;51.528;5.076;2023-03-08T12:28:56;98790.22;;;0.85;78.68
60974;BME280;46846;51.528;5.076;2023-03-08T12:31:26;98768.38;;;0.85;78.61
60974;BME280;46846;51.528;5.076;2023-03-08T12:33:55;98757.06;;;0.84;78.04
60974;BME280;46846;51.528;5.076;2023-03-08T12:36:21;98753.59;;;0.84;78.45
60974;BME280;46846;51.528;5.076;2023-03-08T12:38:48;98754.63;;;0.78;79.37
60974;BME280;46846;51.528;5.076;2023-03-08T12:41:29;98751.22;;;0.74;79.13
60974;BME280;46846;51.528;5.076;2023-03-08T12:44:04;98740.78;;;0.73;79.05
60974;BME280;46846;51.528;5.076;2023-03-08T12:46:53;98736.13;;;0.84;77.98
60974;BME280;46846;51.528;5.076;2023-03-08T12:49:41;98741.53;;;0.78;79.10
60974;BME280;46846;51.528;5.076;2023-03-08T12:54:41;98758.16;;;0.77;78.90
60974;BME280;46846;51.528;5.076;2023-03-08T12:57:17;98754.59;;;0.79;78.86
60974;BME280;46846;51.528;5.076;2023-03-08T12:59:45;98729.28;;;0.78;79.44
60974;BME280;46846;51.528;5.076;2023-03-08T13:02:34;98731.84;;;0.81;78.55
60974;BME280;46846;51.528;5.076;2023-03-08T13:05:45;98729.88;;;0.88;78.59
60974;BME280;46846;51.528;5.076;2023-03-08T13:07:54;98726.44;;;0.88;78.69
60974;BME280;46846;51.528;5.076;2023-03-08T13:10:29;98729.72;;;0.94;78.16
60974;BME280;46846;51.528;5.076;2023-03-08T13:13:05;98729.22;;;0.81;79.26
60974;BME280;46846;51.528;5.076;2023-03-08T13:15:39;98741.19;;;0.90;78.87
60974;BME280;46846;51.528;5.076;2023-03-08T13:20:42;98746.44;;;0.90;79.11
60974;BME280;46846;51.528;5.076;2023-03-08T13:28:14;98730.75;;;0.89;79.11
60974;BME280;46846;51.528;5.076;2023-03-08T13:30:55;98727.56;;;0.77;79.49
60974;BME280;46846;51.528;5.076;2023-03-08T13:33:24;98728.09;;;0.90;78.83
60974;BME280;46846;51.528;5.076;2023-03-08T13:36:23;98743.97;;;0.84;79.65
60974;BME280;46846;51.528;5.076;2023-03-08T13:41:38;98746.34;;;0.93;78.71
60974;BME280;46846;51.528;5.076;2023-03-08T13:44:14;98741.38;;;0.84;79.25
60974;BME280;46846;51.528;5.076;2023-03-08T13:46:40;98747.38;;;0.88;79.22
60974;BME280;46846;51.528;5.076;2023-03-08T13:49:22;98742.00;;;0.92;79.03
60974;BME280;46846;51.528;5.076;2023-03-08T13:51:52;98738.56;;;0.90;79.01
60974;BME280;46846;51.528;5.076;2023-03-08T13:54:46;98743.81;;;0.90;78.80
60974;BME280;46846;51.528;5.076;2023-03-08T13:57:42;98742.91;;;0.91;79.22
60974;BME280;46846;51.528;5.076;2023-03-08T14:00:30;98733.50;;;0.84;79.81
60974;BME280;46846;51.528;5.076;2023-03-08T14:02:57;98723.53;;;0.97;79.12
60974;BME280;46846;51.528;5.076;2023-03-08T14:05:39;98710.41;;;0.99;79.09
60974;BME280;46846;51.528;5.076;2023-03-08T14:08:14;98715.78;;;0.94;79.36
60974;BME280;46846;51.528;5.076;2023-03-08T14:10:47;98718.31;;;0.95;79.48
60974;BME280;46846;51.528;5.076;2023-03-08T14:13:18;98716.75;;;0.90;79.74